NKS1112 KEWR-KDCA
Flight info
| Callsign | NKS1112 |
|---|---|
| Flight time | 0h 43m |
| Altitude | 28000 |
| Route | BIGGY Q75 MXE CLIPR3 |
| Aircraft | A20N/M-SDE2E3FGHIRWXY/LB1 |
Departure
| Time | 2026-05-05 00:31 |
|---|---|
| Airport | Newark Liberty International Airport (KEWR) |
Arrival
| Time | 2026-05-05 01:14 |
|---|---|
| Airport | Ronald Reagan Washington National Airport (KDCA) |
| Time | Latitude | Longitude | Altitude | Speed | Heading |
|---|---|---|---|---|---|
| 2026-05-04 23:58 | 40.69187 | -74.17333 | 21 ft | 0 kts | 275° |
| 2026-05-05 00:19 | 40.69187 | -74.17329 | 20 ft | 3 kts | 275° |
| 2026-05-05 00:19 | 40.69184 | -74.17295 | 23 ft | 4 kts | 278° |
| 2026-05-05 00:20 | 40.69179 | -74.17260 | 24 ft | 4 kts | 282° |
| 2026-05-05 00:20 | 40.69172 | -74.17226 | 21 ft | 4 kts | 295° |
| 2026-05-05 00:20 | 40.69158 | -74.17201 | 22 ft | 4 kts | 347° |
| 2026-05-05 00:20 | 40.69151 | -74.17200 | 23 ft | 0 kts | 26° |
| 2026-05-05 00:26 | 40.69152 | -74.17199 | 21 ft | 1 kts | 26° |
| 2026-05-05 00:26 | 40.69160 | -74.17194 | 22 ft | 2 kts | 26° |
| 2026-05-05 00:26 | 40.69180 | -74.17181 | 21 ft | 4 kts | 26° |
| 2026-05-05 00:26 | 40.69211 | -74.17161 | 22 ft | 6 kts | 26° |
| 2026-05-05 00:27 | 40.69264 | -74.17128 | 22 ft | 10 kts | 25° |
| 2026-05-05 00:27 | 40.69343 | -74.17078 | 21 ft | 15 kts | 25° |
| 2026-05-05 00:27 | 40.69444 | -74.17013 | 23 ft | 17 kts | 26° |
| 2026-05-05 00:27 | 40.69565 | -74.16936 | 22 ft | 22 kts | 27° |
| 2026-05-05 00:28 | 40.69710 | -74.16845 | 22 ft | 25 kts | 25° |
| 2026-05-05 00:28 | 40.69879 | -74.16765 | 20 ft | 26 kts | 6° |
| 2026-05-05 00:28 | 40.70009 | -74.16751 | 21 ft | 6 kts | 5° |
| 2026-05-05 00:28 | 40.70022 | -74.16750 | 21 ft | 4 kts | 5° |
| 2026-05-05 00:29 | 40.70063 | -74.16741 | 20 ft | 8 kts | 21° |
| 2026-05-05 00:29 | 40.70077 | -74.16665 | 19 ft | 11 kts | 94° |
| 2026-05-05 00:29 | 40.70070 | -74.16541 | 19 ft | 16 kts | 94° |
| 2026-05-05 00:29 | 40.70048 | -74.16393 | 19 ft | 17 kts | 128° |
| 2026-05-05 00:30 | 40.69981 | -74.16396 | 17 ft | 9 kts | 205° |
| 2026-05-05 00:30 | 40.69915 | -74.16437 | 17 ft | 17 kts | 205° |
| 2026-05-05 00:30 | 40.69585 | -74.16649 | 29 ft | 87 kts | 206° |
| 2026-05-05 00:30 | 40.68801 | -74.17147 | 73 ft | 159 kts | 206° |
| 2026-05-05 00:31 | 40.67712 | -74.17859 | 525 ft | 187 kts | 205° |
| 2026-05-05 00:31 | 40.66436 | -74.18697 | 917 ft | 222 kts | 206° |
| 2026-05-05 00:31 | 40.65027 | -74.19620 | 1369 ft | 217 kts | 208° |
| 2026-05-05 00:31 | 40.63764 | -74.20444 | 1666 ft | 190 kts | 207° |
| 2026-05-05 00:32 | 40.62608 | -74.21195 | 1823 ft | 184 kts | 208° |
| 2026-05-05 00:32 | 40.61473 | -74.21933 | 1987 ft | 184 kts | 210° |
| 2026-05-05 00:32 | 40.60437 | -74.22888 | 2210 ft | 182 kts | 227° |
| 2026-05-05 00:32 | 40.59719 | -74.24271 | 2572 ft | 185 kts | 237° |
| 2026-05-05 00:33 | 40.59115 | -74.25770 | 2942 ft | 187 kts | 248° |
| 2026-05-05 00:33 | 40.58878 | -74.27453 | 3297 ft | 191 kts | 266° |
| 2026-05-05 00:33 | 40.59112 | -74.29198 | 3666 ft | 197 kts | 279° |
| 2026-05-05 00:33 | 40.59458 | -74.30969 | 4058 ft | 209 kts | 279° |
| 2026-05-05 00:34 | 40.59829 | -74.32967 | 4500 ft | 239 kts | 279° |
| 2026-05-05 00:34 | 40.60000 | -74.35192 | 4916 ft | 248 kts | 264° |
| 2026-05-05 00:34 | 40.59681 | -74.37414 | 5330 ft | 248 kts | 253° |
| 2026-05-05 00:34 | 40.59139 | -74.39574 | 5732 ft | 249 kts | 250° |
| 2026-05-05 00:35 | 40.58545 | -74.41688 | 6134 ft | 250 kts | 250° |
| 2026-05-05 00:35 | 40.57923 | -74.43832 | 6530 ft | 251 kts | 250° |
| 2026-05-05 00:35 | 40.57291 | -74.45983 | 6905 ft | 253 kts | 250° |
| 2026-05-05 00:35 | 40.56654 | -74.48144 | 7298 ft | 255 kts | 250° |
| 2026-05-05 00:36 | 40.56008 | -74.50325 | 7695 ft | 257 kts | 250° |
| 2026-05-05 00:36 | 40.55357 | -74.52522 | 8101 ft | 259 kts | 250° |
| 2026-05-05 00:36 | 40.54701 | -74.54733 | 8509 ft | 261 kts | 251° |
| 2026-05-05 00:36 | 40.54038 | -74.56966 | 8925 ft | 263 kts | 251° |
| 2026-05-05 00:37 | 40.53369 | -74.59215 | 9345 ft | 265 kts | 251° |
| 2026-05-05 00:37 | 40.52694 | -74.61483 | 9768 ft | 267 kts | 251° |
| 2026-05-05 00:37 | 40.52022 | -74.63738 | 10140 ft | 273 kts | 251° |
| 2026-05-05 00:37 | 40.51301 | -74.66164 | 10547 ft | 296 kts | 251° |
| 2026-05-05 00:38 | 40.50524 | -74.68777 | 10740 ft | 317 kts | 251° |
| 2026-05-05 00:38 | 40.50175 | -74.69945 | 10888 ft | 325 kts | 250° |
| 2026-05-05 00:38 | 40.49538 | -74.72077 | 11522 ft | 328 kts | 250° |
| 2026-05-05 00:39 | 40.48708 | -74.74839 | 12702 ft | 323 kts | 250° |
| 2026-05-05 00:39 | 40.47884 | -74.77583 | 13744 ft | 323 kts | 250° |
| 2026-05-05 00:39 | 40.47166 | -74.79978 | 14480 ft | 326 kts | 250° |
| 2026-05-05 00:40 | 40.46499 | -74.82198 | 15129 ft | 330 kts | 250° |
| 2026-05-05 00:40 | 40.45664 | -74.84980 | 15935 ft | 334 kts | 250° |
| 2026-05-05 00:40 | 40.44806 | -74.87833 | 16756 ft | 338 kts | 250° |
| 2026-05-05 00:40 | 40.43938 | -74.90719 | 17573 ft | 342 kts | 251° |
| 2026-05-05 00:41 | 40.43057 | -74.93643 | 18341 ft | 346 kts | 251° |
| 2026-05-05 00:41 | 40.42056 | -74.96542 | 18990 ft | 353 kts | 243° |
| 2026-05-05 00:41 | 40.40644 | -74.99232 | 19640 ft | 361 kts | 235° |
| 2026-05-05 00:41 | 40.39014 | -75.01773 | 20277 ft | 368 kts | 232° |
| 2026-05-05 00:42 | 40.37257 | -75.04251 | 20935 ft | 373 kts | 230° |
| 2026-05-05 00:42 | 40.35439 | -75.06716 | 21527 ft | 379 kts | 229° |
| 2026-05-05 00:42 | 40.33595 | -75.09197 | 21845 ft | 380 kts | 229° |
| 2026-05-05 00:42 | 40.31753 | -75.11692 | 21900 ft | 381 kts | 229° |
| 2026-05-05 00:43 | 40.29943 | -75.14171 | 21898 ft | 382 kts | 230° |
| 2026-05-05 00:43 | 40.28111 | -75.16705 | 21898 ft | 383 kts | 230° |
| 2026-05-05 00:43 | 40.26289 | -75.19240 | 21897 ft | 383 kts | 230° |
| 2026-05-05 00:43 | 40.24467 | -75.21785 | 21915 ft | 383 kts | 230° |
| 2026-05-05 00:44 | 40.22647 | -75.24328 | 21915 ft | 383 kts | 230° |
| 2026-05-05 00:44 | 40.20825 | -75.26875 | 21916 ft | 383 kts | 230° |
| 2026-05-05 00:44 | 40.19007 | -75.29412 | 21915 ft | 383 kts | 230° |
| 2026-05-05 00:44 | 40.17183 | -75.31954 | 21913 ft | 383 kts | 230° |
| 2026-05-05 00:45 | 40.15359 | -75.34493 | 21915 ft | 383 kts | 230° |
| 2026-05-05 00:45 | 40.13536 | -75.37029 | 21916 ft | 383 kts | 230° |
| 2026-05-05 00:45 | 40.11732 | -75.39534 | 21915 ft | 383 kts | 230° |
| 2026-05-05 00:45 | 40.09904 | -75.42070 | 21914 ft | 383 kts | 230° |
| 2026-05-05 00:46 | 40.08079 | -75.44601 | 21914 ft | 383 kts | 230° |
| 2026-05-05 00:46 | 40.06251 | -75.47132 | 21924 ft | 382 kts | 230° |
| 2026-05-05 00:46 | 40.04428 | -75.49657 | 21925 ft | 382 kts | 230° |
| 2026-05-05 00:46 | 40.02604 | -75.52180 | 21924 ft | 382 kts | 230° |
| 2026-05-05 00:47 | 40.00781 | -75.54698 | 21922 ft | 382 kts | 230° |
| 2026-05-05 00:47 | 39.98957 | -75.57219 | 21919 ft | 382 kts | 230° |
| 2026-05-05 00:47 | 39.97131 | -75.59738 | 21925 ft | 382 kts | 230° |
| 2026-05-05 00:47 | 39.95325 | -75.62228 | 21925 ft | 382 kts | 229° |
| 2026-05-05 00:48 | 39.93498 | -75.64744 | 21924 ft | 383 kts | 229° |
| 2026-05-05 00:48 | 39.91743 | -75.67337 | 21924 ft | 381 kts | 235° |
| 2026-05-05 00:48 | 39.90197 | -75.70133 | 21923 ft | 380 kts | 238° |
| 2026-05-05 00:48 | 39.88713 | -75.72974 | 21915 ft | 380 kts | 238° |
| 2026-05-05 00:49 | 39.87240 | -75.75820 | 21914 ft | 379 kts | 238° |
| 2026-05-05 00:49 | 39.85762 | -75.78669 | 21921 ft | 380 kts | 238° |
| 2026-05-05 00:49 | 39.84282 | -75.81515 | 21913 ft | 379 kts | 238° |
| 2026-05-05 00:49 | 39.82822 | -75.84316 | 21913 ft | 379 kts | 238° |
| 2026-05-05 00:50 | 39.81342 | -75.87152 | 21909 ft | 379 kts | 238° |
| 2026-05-05 00:50 | 39.79861 | -75.89985 | 21912 ft | 379 kts | 238° |
| 2026-05-05 00:50 | 39.78376 | -75.92822 | 21911 ft | 379 kts | 238° |
| 2026-05-05 00:50 | 39.76895 | -75.95650 | 21903 ft | 379 kts | 238° |
| 2026-05-05 00:51 | 39.75409 | -75.98484 | 21903 ft | 379 kts | 238° |
| 2026-05-05 00:51 | 39.73924 | -76.01315 | 21903 ft | 379 kts | 238° |
| 2026-05-05 00:51 | 39.72439 | -76.04142 | 21903 ft | 379 kts | 238° |
| 2026-05-05 00:51 | 39.70961 | -76.06951 | 21543 ft | 375 kts | 238° |
| 2026-05-05 00:52 | 39.69481 | -76.09764 | 20653 ft | 381 kts | 238° |
| 2026-05-05 00:52 | 39.67983 | -76.12609 | 19924 ft | 382 kts | 237° |
| 2026-05-05 00:52 | 39.66508 | -76.15407 | 19319 ft | 379 kts | 237° |
| 2026-05-05 00:52 | 39.65023 | -76.18220 | 18744 ft | 376 kts | 237° |
| 2026-05-05 00:53 | 39.63551 | -76.21007 | 18156 ft | 373 kts | 236° |
| 2026-05-05 00:53 | 39.62093 | -76.23765 | 17521 ft | 369 kts | 237° |
| 2026-05-05 00:53 | 39.60647 | -76.26497 | 16908 ft | 365 kts | 237° |
| 2026-05-05 00:53 | 39.59162 | -76.29150 | 16318 ft | 363 kts | 231° |
| 2026-05-05 00:54 | 39.57291 | -76.31342 | 15700 ft | 363 kts | 219° |
| 2026-05-05 00:54 | 39.55228 | -76.33206 | 15097 ft | 361 kts | 217° |
| 2026-05-05 00:54 | 39.53140 | -76.35006 | 14466 ft | 360 kts | 217° |
| 2026-05-05 00:54 | 39.51091 | -76.36766 | 13900 ft | 357 kts | 218° |
| 2026-05-05 00:55 | 39.49032 | -76.38541 | 13300 ft | 353 kts | 218° |
| 2026-05-05 00:55 | 39.47001 | -76.40296 | 12680 ft | 350 kts | 218° |
| 2026-05-05 00:55 | 39.44992 | -76.42034 | 12159 ft | 343 kts | 218° |
| 2026-05-05 00:55 | 39.43038 | -76.43724 | 11849 ft | 332 kts | 218° |
| 2026-05-05 00:56 | 39.41158 | -76.45349 | 11714 ft | 320 kts | 218° |
| 2026-05-05 00:56 | 39.39314 | -76.46948 | 11593 ft | 319 kts | 218° |
| 2026-05-05 00:56 | 39.37468 | -76.48550 | 11456 ft | 320 kts | 218° |
| 2026-05-05 00:56 | 39.35647 | -76.50128 | 11347 ft | 319 kts | 218° |
| 2026-05-05 00:57 | 39.33810 | -76.51719 | 11217 ft | 317 kts | 218° |
| 2026-05-05 00:57 | 39.31980 | -76.53301 | 11082 ft | 316 kts | 218° |
| 2026-05-05 00:57 | 39.30157 | -76.54876 | 10942 ft | 315 kts | 218° |
| 2026-05-05 00:57 | 39.28335 | -76.56449 | 10809 ft | 314 kts | 218° |
| 2026-05-05 00:58 | 39.26524 | -76.58012 | 10644 ft | 313 kts | 218° |
| 2026-05-05 00:58 | 39.24715 | -76.59572 | 10504 ft | 313 kts | 218° |
| 2026-05-05 00:58 | 39.22908 | -76.61128 | 10388 ft | 312 kts | 218° |
| 2026-05-05 00:58 | 39.21101 | -76.62684 | 10245 ft | 309 kts | 218° |
| 2026-05-05 00:59 | 39.19380 | -76.64159 | 10124 ft | 294 kts | 218° |
| 2026-05-05 00:59 | 39.17724 | -76.65591 | 10006 ft | 280 kts | 220° |
| 2026-05-05 00:59 | 39.16240 | -76.67139 | 9825 ft | 271 kts | 226° |
| 2026-05-05 00:59 | 39.14853 | -76.68759 | 9545 ft | 268 kts | 227° |
| 2026-05-05 01:00 | 39.13485 | -76.70392 | 9309 ft | 267 kts | 227° |
| 2026-05-05 01:00 | 39.12123 | -76.72017 | 9123 ft | 267 kts | 227° |
| 2026-05-05 01:00 | 39.10766 | -76.73633 | 8895 ft | 265 kts | 226° |
| 2026-05-05 01:00 | 39.09411 | -76.75242 | 8675 ft | 264 kts | 226° |
| 2026-05-05 01:01 | 39.08065 | -76.76837 | 8452 ft | 262 kts | 226° |
| 2026-05-05 01:01 | 39.06728 | -76.78420 | 8225 ft | 261 kts | 226° |
| 2026-05-05 01:01 | 39.05473 | -76.80048 | 8007 ft | 258 kts | 233° |
| 2026-05-05 01:01 | 39.04542 | -76.81997 | 7776 ft | 255 kts | 248° |
| 2026-05-05 01:02 | 39.04115 | -76.84205 | 7540 ft | 255 kts | 262° |
| 2026-05-05 01:02 | 39.03985 | -76.86479 | 7292 ft | 255 kts | 265° |
| 2026-05-05 01:02 | 39.03927 | -76.88759 | 7035 ft | 255 kts | 267° |
| 2026-05-05 01:02 | 39.03885 | -76.91029 | 6789 ft | 254 kts | 267° |
| 2026-05-05 01:03 | 39.03847 | -76.93296 | 6549 ft | 253 kts | 266° |
| 2026-05-05 01:03 | 39.03810 | -76.95526 | 6311 ft | 253 kts | 266° |
| 2026-05-05 01:03 | 39.03771 | -76.97782 | 6059 ft | 253 kts | 266° |
| 2026-05-05 01:03 | 39.03732 | -77.00045 | 5806 ft | 252 kts | 266° |
| 2026-05-05 01:04 | 39.03692 | -77.02289 | 5548 ft | 251 kts | 266° |
| 2026-05-05 01:04 | 39.03616 | -77.06773 | 5054 ft | 251 kts | 266° |
| 2026-05-05 01:04 | 39.03823 | -77.09013 | 4865 ft | 254 kts | 282° |
| 2026-05-05 01:05 | 39.04609 | -77.11071 | 4759 ft | 262 kts | 302° |
| 2026-05-05 01:05 | 39.05841 | -77.12825 | 4632 ft | 266 kts | 310° |
| 2026-05-05 01:05 | 39.07158 | -77.14458 | 4503 ft | 267 kts | 311° |
| 2026-05-05 01:05 | 39.08506 | -77.16103 | 4368 ft | 265 kts | 311° |
| 2026-05-05 01:06 | 39.09747 | -77.17782 | 4205 ft | 251 kts | 301° |
| 2026-05-05 01:06 | 39.10563 | -77.19674 | 4035 ft | 233 kts | 283° |
| 2026-05-05 01:06 | 39.10817 | -77.21612 | 3895 ft | 209 kts | 264° |
| 2026-05-05 01:06 | 39.10540 | -77.23352 | 3731 ft | 190 kts | 245° |
| 2026-05-05 01:07 | 39.09863 | -77.24724 | 3539 ft | 177 kts | 227° |
| 2026-05-05 01:07 | 39.08916 | -77.25674 | 3367 ft | 170 kts | 211° |
| 2026-05-05 01:07 | 39.07798 | -77.26180 | 3200 ft | 172 kts | 195° |
| 2026-05-05 01:07 | 39.06614 | -77.26172 | 3064 ft | 178 kts | 173° |
| 2026-05-05 01:08 | 39.05493 | -77.25426 | 2931 ft | 186 kts | 151° |
| 2026-05-05 01:08 | 39.04488 | -77.24346 | 2825 ft | 190 kts | 146° |
| 2026-05-05 01:08 | 39.03521 | -77.23226 | 2724 ft | 184 kts | 146° |
| 2026-05-05 01:08 | 39.02563 | -77.22122 | 2706 ft | 185 kts | 146° |
| 2026-05-05 01:09 | 39.01599 | -77.21027 | 2692 ft | 184 kts | 146° |
| 2026-05-05 01:09 | 39.00634 | -77.19939 | 2386 ft | 185 kts | 146° |
| 2026-05-05 01:09 | 38.99666 | -77.18854 | 2050 ft | 183 kts | 146° |
| 2026-05-05 01:09 | 38.98751 | -77.17824 | 1899 ft | 169 kts | 146° |
| 2026-05-05 01:10 | 38.97924 | -77.16887 | 1870 ft | 148 kts | 147° |
| 2026-05-05 01:10 | 38.97184 | -77.16051 | 1884 ft | 139 kts | 149° |
| 2026-05-05 01:10 | 38.96448 | -77.15242 | 1879 ft | 140 kts | 148° |
| 2026-05-05 01:10 | 38.95705 | -77.14422 | 1902 ft | 141 kts | 148° |
| 2026-05-05 01:11 | 38.94966 | -77.13605 | 1898 ft | 140 kts | 148° |
| 2026-05-05 01:11 | 38.94238 | -77.12799 | 1895 ft | 136 kts | 148° |
| 2026-05-05 01:11 | 38.93512 | -77.12019 | 1886 ft | 134 kts | 153° |
| 2026-05-05 01:11 | 38.92722 | -77.11436 | 1842 ft | 131 kts | 159° |
| 2026-05-05 01:12 | 38.91948 | -77.10929 | 1742 ft | 122 kts | 160° |
| 2026-05-05 01:12 | 38.91242 | -77.10315 | 1474 ft | 125 kts | 147° |
| 2026-05-05 01:12 | 38.90711 | -77.09416 | 1270 ft | 131 kts | 126° |
| 2026-05-05 01:12 | 38.90338 | -77.08342 | 1142 ft | 131 kts | 122° |
| 2026-05-05 01:13 | 38.89861 | -77.07404 | 1016 ft | 120 kts | 147° |
| 2026-05-05 01:13 | 38.89123 | -77.06929 | 1029 ft | 121 kts | 159° |
| 2026-05-05 01:13 | 38.88383 | -77.06367 | 847 ft | 127 kts | 149° |
| 2026-05-05 01:13 | 38.87678 | -77.05706 | 576 ft | 123 kts | 148° |
| 2026-05-05 01:14 | 38.86967 | -77.05113 | 327 ft | 122 kts | 149° |
| 2026-05-05 01:14 | 38.86278 | -77.04468 | 98 ft | 120 kts | 147° |
| 2026-05-05 01:14 | 38.85664 | -77.03888 | 29 ft | 101 kts | 144° |
| 2026-05-05 01:14 | 38.85288 | -77.03513 | 30 ft | 31 kts | 143° |
| 2026-05-05 01:15 | 38.85108 | -77.03533 | 29 ft | 28 kts | 207° |
| 2026-05-05 01:15 | 38.84940 | -77.03642 | 30 ft | 26 kts | 205° |
| 2026-05-05 01:15 | 38.84778 | -77.03741 | 27 ft | 22 kts | 205° |
| 2026-05-05 01:15 | 38.84685 | -77.03838 | 28 ft | 6 kts | 275° |
| 2026-05-05 01:16 | 38.84711 | -77.03870 | 28 ft | 6 kts | 332° |
| 2026-05-05 01:16 | 38.84739 | -77.03912 | 27 ft | 8 kts | 302° |
| 2026-05-05 01:16 | 38.84790 | -77.03943 | 26 ft | 10 kts | 1° |
| 2026-05-05 01:16 | 38.84868 | -77.03944 | 24 ft | 12 kts | 356° |
| 2026-05-05 01:17 | 38.84959 | -77.03958 | 26 ft | 14 kts | 353° |
| 2026-05-05 01:17 | 38.85034 | -77.04000 | 25 ft | 10 kts | 293° |
| 2026-05-05 01:17 | 38.85034 | -77.04059 | 24 ft | 0 kts | 263° |
| 2026-05-05 01:18 | 39.10100 | -77.24354 | 3590 ft | 181 kts | 233° |
| 2026-05-05 01:18 | 38.92893 | -77.11550 | 1853 ft | 132 kts | 161° |
| 2026-05-05 01:18 | 38.89109 | -77.06920 | 1034 ft | 119 kts | 160° |
| 2026-05-05 01:18 | 38.87184 | -77.05304 | 405 ft | 117 kts | 156° |